METAR Data
IDs: Format: Raw Decoded Include TAF

Data at: 1349 UTC 09 Dec 2019

KMNV 091335Z AUTO 24007KT 10SM OVC027 10/07 A2997 RMK A01
KMNV 091315Z AUTO 24007G12KT 10SM OVC029 10/07 A2998 RMK A01
KMNV 091255Z AUTO 26008KT 10SM BKN030 OVC035 10/07 A2998 RMK A01
KMNV 091235Z AUTO 25007KT 10SM OVC034 10/07 A2999 RMK A01
KMNV 091215Z AUTO 24007KT 10SM OVC036 10/07 A2998 RMK A01
KMNV 091155Z AUTO 25007KT 10SM BKN038 OVC043 10/08 A2999 RMK A01
KMNV 091135Z AUTO 24006KT 10SM BKN042 OVC049 10/08 A2999 RMK A01
KMNV 091115Z AUTO 25007G12KT 10SM BKN041 OVC049 11/08 A2999 RMK A01
KMNV 091055Z AUTO 21011G18KT 10SM BKN041 BKN046 OVC085 11/08 A2999 RMK A01
KMNV 091035Z AUTO 22008G17KT 10SM SCT032 OVC041 11/08 A3000 RMK A01
KMNV 091015Z AUTO 21011KT 10SM OVC031 11/07 A3000 RMK A01
KMNV 090955Z AUTO 22009G17KT 10SM OVC031 11/07 A3001 RMK A01
KMNV 090935Z AUTO 21010G16KT 10SM OVC031 11/07 A3000 RMK A01
KMNV 090915Z AUTO 21011G18KT 10SM OVC032 11/07 A3001 RMK A01
KMNV 090855Z AUTO 22008G14KT 10SM OVC035 11/07 A3002 RMK A01
KMNV 090835Z AUTO 21010KT 10SM BKN037 OVC042 11/07 A3003 RMK A01
KMNV 090815Z AUTO 22010KT 10SM SCT035 OVC041 10/08 A3003 RMK A01
KMNV 090755Z AUTO 21010KT 10SM OVC035 10/08 A3003 RMK A01 P0002
KMNV 090735Z AUTO 21011G17KT 8SM SCT033 BKN038 OVC055 11/08 A3005 RMK A01
KMNV 090715Z AUTO 21016G22KT 10SM BKN034 OVC050 13/06 A3006 RMK A01
KMNV 090655Z AUTO 21013KT 10SM OVC034 13/06 A3005 RMK A01
KMNV 090635Z AUTO 21009KT 10SM OVC034 13/05 A3005 RMK A01
KMNV 090615Z AUTO 21010KT 10SM OVC036 13/05 A3006 RMK A01
KMNV 090555Z AUTO 20008G16KT 10SM SCT036 BKN048 OVC065 13/04 A3007 RMK A01
KMNV 090535Z AUTO 21009KT 10SM OVC048 13/04 A3009 RMK A01
KMNV 090515Z AUTO 22006KT 10SM FEW043 OVC050 13/04 A3010 RMK A01
KMNV 090455Z AUTO 21011G17KT 10SM OVC050 13/03 A3011 RMK A01
KMNV 090435Z AUTO 22013KT 10SM OVC055 13/03 A3010 RMK A01
KMNV 090415Z AUTO 21010KT 10SM BKN055 BKN070 OVC080 13/03 A3010 RMK A01
KMNV 090355Z AUTO 20011G16KT 10SM FEW030 BKN050 OVC085 13/03 A3009 RMK A01
KMNV 090335Z AUTO 22009G19KT 10SM FEW034 SCT050 BKN060 13/03 A3010 RMK A01
KMNV 090315Z AUTO 21011G18KT 10SM FEW034 SCT060 BKN075 13/03 A3010 RMK A01
KMNV 090255Z AUTO 21012KT 10SM SCT038 BKN065 OVC085 13/02 A3012 RMK A01
KMNV 090235Z AUTO 20008G17KT 10SM OVC038 13/02 A3012 RMK A01
KMNV 090215Z AUTO 21008G14KT 10SM OVC038 13/03 A3012 RMK A01
KMNV 090155Z AUTO 22008KT 10SM OVC038 13/03 A3013 RMK A01
KMNV 090135Z AUTO 21008KT 10SM OVC038 13/03 A3013 RMK A01
KMNV 090115Z AUTO 22009KT 180V240 10SM BKN039 BKN048 OVC075 13/03 A3012 RMK A01
KMNV 090055Z AUTO 21009KT 10SM SCT041 BKN048 OVC070 13/03 A3012 RMK A01
KMNV 090035Z AUTO 21008KT 10SM BKN042 OVC049 13/03 A3014 RMK A01
KMNV 090015Z AUTO 23008KT 10SM OVC044 13/02 A3013 RMK A01
KMNV 082355Z AUTO 21009KT 10SM SCT043 OVC055 14/02 A3013 RMK A01
KMNV 082335Z AUTO 21008KT 10SM SCT042 BKN055 OVC075 13/02 A3014 RMK A01
KMNV 082315Z AUTO 20007G13KT 170V230 10SM FEW042 SCT049 BKN060 13/02 A3014 RMK A01
KMNV 082255Z AUTO 21007KT 10SM FEW042 SCT050 OVC070 13/02 A3014 RMK A01
KMNV 082235Z AUTO 23006KT 10SM FEW050 BKN070 14/02 A3014 RMK A01
KMNV 082215Z AUTO 21007KT 10SM FEW050 SCT055 SCT070 13/02 A3014 RMK A01
KMNV 082155Z AUTO 21009KT 10SM BKN050 14/02 A3015 RMK A01
KMNV 082135Z AUTO 19008G13KT 10SM CLR 14/02 A3014 RMK A01
KMNV 082115Z AUTO 18010G16KT 150V210 10SM CLR 15/02 A3014 RMK A01
KMNV 082055Z AUTO 19010G17KT 10SM SCT060 15/02 A3016 RMK A01
KMNV 082035Z AUTO 19008G14KT 140V220 10SM FEW049 SCT060 15/02 A3016 RMK A01
KMNV 082015Z AUTO 18011G18KT 10SM CLR 15/02 A3016 RMK A01
KMNV 081955Z AUTO 18012KT 160V220 10SM CLR 16/03 A3016 RMK A01
KMNV 081935Z AUTO 17010G21KT 150V220 10SM CLR 15/03 A3016 RMK A01
KMNV 081915Z AUTO 19011G17KT 10SM CLR 16/03 A3018 RMK A01
KMNV 081855Z AUTO 17009G15KT 10SM CLR 15/03 A3019 RMK A01
KMNV 081835Z AUTO 18008G16KT 10SM CLR 15/03 A3020 RMK A01
KMNV 081815Z AUTO 20011G20KT 10SM CLR 15/03 A3021 RMK A01
KMNV 081755Z AUTO 18013G19KT 150V210 10SM CLR 14/03 A3021 RMK A01
KMNV 081735Z AUTO 20016G24KT 170V230 10SM SCT050 SCT060 14/03 A3022 RMK A01
KMNV 081715Z AUTO 21012G21KT 160V230 10SM SCT050 14/04 A3023 RMK A01
KMNV 081655Z AUTO 20009KT 160V220 10SM CLR 14/04 A3025 RMK A01
KMNV 081635Z AUTO VRB03KT 10SM CLR 13/05 A3026 RMK A01
KMNV 081615Z AUTO VRB04G11KT 10SM CLR 13/05 A3027 RMK A01
KMNV 081555Z AUTO VRB06G13KT 10SM CLR 12/04 A3028 RMK A01
KMNV 081535Z AUTO 21008G13KT 10SM SCT060 12/04 A3029 RMK A01
KMNV 081515Z AUTO 18007G13KT 10SM SCT060 11/04 A3029 RMK A01
KMNV 081455Z AUTO 21008G13KT 10SM OVC060 11/05 A3029 RMK A01
KMNV 081435Z AUTO 21010KT 10SM BKN060 10/05 A3030 RMK A01
KMNV 081415Z AUTO 23005G12KT 10SM FEW060 08/06 A3029 RMK A01
KMNV 081355Z AUTO 00000KT 9SM CLR 03/03 A3028 RMK A01
KMNV 081335Z AUTO 00000KT 7SM CLR 02/02 A3028 RMK A01
KMNV 081315Z AUTO 00000KT 3SM BR CLR 01/01 A3027 RMK A01
KMNV 081255Z AUTO 00000KT 2 1/2SM BR CLR 01/01 A3027 RMK A01
KMNV 081235Z AUTO 00000KT 2 1/2SM BR CLR 02/02 A3027 RMK A01
KMNV 081215Z AUTO 00000KT 2SM BR CLR 01/01 A3027 RMK A01
KMNV 081155Z AUTO 00000KT 4SM BR CLR 01/01 A3026 RMK A01
KMNV 081135Z AUTO 00000KT 6SM BR CLR 01/01 A3027 RMK A01
KMNV 081115Z AUTO 00000KT 9SM FEW055 01/01 A3027 RMK A01
KMNV 081055Z AUTO 00000KT 7SM BKN055 02/02 A3027 RMK A01
KMNV 081035Z AUTO 00000KT 9SM OVC055 02/02 A3027 RMK A01
KMNV 081015Z AUTO 00000KT 9SM OVC055 02/02 A3027 RMK A01
KMNV 080955Z AUTO 00000KT 7SM BKN055 02/02 A3027 RMK A01
KMNV 080935Z AUTO 00000KT 3SM BR SCT055 02/02 A3027 RMK A01
KMNV 080915Z AUTO 00000KT 6SM BR CLR 01/01 A3026 RMK A01
KMNV 080855Z AUTO 00000KT 9SM CLR 02/02 A3026 RMK A01
KMNV 080835Z AUTO 00000KT 10SM CLR 02/02 A3026 RMK A01
KMNV 080815Z AUTO 00000KT 6SM BR CLR 02/02 A3026 RMK A01
KMNV 080755Z AUTO 00000KT 6SM BR CLR 02/02 A3027 RMK A01
KMNV 080735Z AUTO 00000KT 8SM CLR 03/03 A3027 RMK A01
KMNV 080715Z AUTO 00000KT 9SM CLR 02/02 A3027 RMK A01
KMNV 080655Z AUTO 00000KT 7SM CLR 02/02 A3027 RMK A01
KMNV 080635Z AUTO 00000KT 6SM BR FEW050 FEW055 03/03 A3027 RMK A01
KMNV 080615Z AUTO 00000KT 5SM BR FEW055 03/03 A3026 RMK A01
KMNV 080555Z AUTO 00000KT 10SM SCT050 04/03 A3026 RMK A01
KMNV 080535Z AUTO 00000KT 10SM SCT050 03/03 A3026 RMK A01
KMNV 080515Z AUTO 00000KT 10SM SCT050 04/04 A3026 RMK A01
KMNV 080455Z AUTO 00000KT 10SM SCT049 04/04 A3026 RMK A01
KMNV 080435Z AUTO 00000KT 10SM SCT049 04/04 A3027 RMK A01
KMNV 080415Z AUTO 00000KT 10SM BKN048 05/04 A3027 RMK A01
KMNV 080355Z AUTO 00000KT 10SM BKN047 05/04 A3027 RMK A01
KMNV 080335Z AUTO 00000KT 10SM BKN047 OVC050 05/04 A3027 RMK A01
KMNV 080315Z AUTO 00000KT 10SM OVC050 06/04 A3028 RMK A01
KMNV 080255Z AUTO 00000KT 10SM OVC050 06/04 A3028 RMK A01
KMNV 080235Z AUTO 00000KT 10SM OVC050 06/04 A3029 RMK A01
KMNV 080215Z AUTO 00000KT 9SM OVC050 06/04 A3028 RMK A01
KMNV 080155Z AUTO 00000KT 10SM OVC050 06/04 A3028 RMK A01